sensor_id;sensor_type;location;lat;lon;timestamp;pressure;altitude;pressure_sealevel;temperature;humidity
10462;BME280;5278;42.656;23.374;2023-04-01T00:01:24;93761.25;;;13.72;59.47
10462;BME280;5278;42.656;23.374;2023-04-01T00:03:51;93754.44;;;13.46;60.38
10462;BME280;5278;42.656;23.374;2023-04-01T00:06:20;93748.25;;;13.16;60.65
10462;BME280;5278;42.656;23.374;2023-04-01T00:08:46;93774.38;;;13.09;61.47
10462;BME280;5278;42.656;23.374;2023-04-01T00:11:14;93784.81;;;13.09;62.11
10462;BME280;5278;42.656;23.374;2023-04-01T00:13:41;93772.78;;;13.02;61.86
10462;BME280;5278;42.656;23.374;2023-04-01T00:16:10;93779.09;;;12.87;62.26
10462;BME280;5278;42.656;23.374;2023-04-01T00:18:37;93766.09;;;12.81;63.12
10462;BME280;5278;42.656;23.374;2023-04-01T00:21:05;93766.78;;;12.70;63.89
10462;BME280;5278;42.656;23.374;2023-04-01T00:23:32;93776.22;;;12.64;64.11
10462;BME280;5278;42.656;23.374;2023-04-01T00:25:59;93784.66;;;12.60;64.35
10462;BME280;5278;42.656;23.374;2023-04-01T00:28:27;93787.22;;;12.66;64.57
10462;BME280;5278;42.656;23.374;2023-04-01T00:30:54;93776.59;;;12.68;64.62
10462;BME280;5278;42.656;23.374;2023-04-01T00:33:22;93778.69;;;12.52;65.33
10462;BME280;5278;42.656;23.374;2023-04-01T00:35:50;93775.09;;;12.40;65.78
10462;BME280;5278;42.656;23.374;2023-04-01T00:38:16;93774.25;;;12.53;65.76
10462;BME280;5278;42.656;23.374;2023-04-01T00:40:46;93764.00;;;12.65;65.43
10462;BME280;5278;42.656;23.374;2023-04-01T00:43:14;93774.19;;;12.66;65.17
10462;BME280;5278;42.656;23.374;2023-04-01T00:45:45;93749.56;;;12.62;65.20
10462;BME280;5278;42.656;23.374;2023-04-01T00:48:15;93751.34;;;12.68;65.74
10462;BME280;5278;42.656;23.374;2023-04-01T00:50:46;93753.75;;;12.70;66.07
10462;BME280;5278;42.656;23.374;2023-04-01T00:53:14;93738.31;;;12.68;65.63
10462;BME280;5278;42.656;23.374;2023-04-01T00:55:47;93744.50;;;12.74;65.62
10462;BME280;5278;42.656;23.374;2023-04-01T00:58:18;93736.84;;;12.79;66.13
10462;BME280;5278;42.656;23.374;2023-04-01T01:00:49;93741.25;;;12.78;65.65
10462;BME280;5278;42.656;23.374;2023-04-01T01:03:17;93736.44;;;12.75;65.91
10462;BME280;5278;42.656;23.374;2023-04-01T01:06:07;93717.25;;;12.70;66.16
10462;BME280;5278;42.656;23.374;2023-04-01T01:08:43;93723.06;;;12.65;66.12
10462;BME280;5278;42.656;23.374;2023-04-01T01:11:15;93718.50;;;12.61;66.22
10462;BME280;5278;42.656;23.374;2023-04-01T01:13:49;93712.16;;;12.50;66.24
10462;BME280;5278;42.656;23.374;2023-04-01T01:16:26;93712.38;;;12.48;65.85
10462;BME280;5278;42.656;23.374;2023-04-01T01:18:57;93708.16;;;12.47;65.83
10462;BME280;5278;42.656;23.374;2023-04-01T01:21:47;93696.19;;;12.40;65.73
10462;BME280;5278;42.656;23.374;2023-04-01T01:24:29;93700.78;;;12.38;65.86
10462;BME280;5278;42.656;23.374;2023-04-01T01:27:02;93702.97;;;12.41;65.64
10462;BME280;5278;42.656;23.374;2023-04-01T01:29:58;93695.94;;;12.48;64.96
10462;BME280;5278;42.656;23.374;2023-04-01T01:32:39;93695.13;;;12.47;64.82
10462;BME280;5278;42.656;23.374;2023-04-01T01:35:17;93615.00;;;12.12;64.10
10462;BME280;5278;42.656;23.374;2023-04-01T01:37:47;93680.03;;;12.56;63.14
10462;BME280;5278;42.656;23.374;2023-04-01T01:40:17;93673.38;;;12.67;61.69
10462;BME280;5278;42.656;23.374;2023-04-01T01:42:48;93668.13;;;12.73;61.41
10462;BME280;5278;42.656;23.374;2023-04-01T01:45:19;93682.16;;;12.72;61.33
10462;BME280;5278;42.656;23.374;2023-04-01T01:47:48;93680.94;;;12.75;60.76
10462;BME280;5278;42.656;23.374;2023-04-01T01:50:18;93676.25;;;12.83;60.33
10462;BME280;5278;42.656;23.374;2023-04-01T01:52:46;93621.09;;;12.62;60.10
10462;BME280;5278;42.656;23.374;2023-04-01T01:55:28;93640.09;;;12.93;58.97
10462;BME280;5278;42.656;23.374;2023-04-01T01:57:57;93660.44;;;13.10;58.19
10462;BME280;5278;42.656;23.374;2023-04-01T02:00:26;93653.78;;;13.14;58.17
10462;BME280;5278;42.656;23.374;2023-04-01T02:02:54;93650.34;;;13.20;57.95
10462;BME280;5278;42.656;23.374;2023-04-01T02:05:25;93644.25;;;13.26;58.28
10462;BME280;5278;42.656;23.374;2023-04-01T02:08:00;93649.63;;;13.31;56.77
10462;BME280;5278;42.656;23.374;2023-04-01T02:10:28;93647.75;;;13.38;55.70
10462;BME280;5278;42.656;23.374;2023-04-01T02:13:01;93642.69;;;13.43;56.13
10462;BME280;5278;42.656;23.374;2023-04-01T02:15:31;93639.78;;;13.51;55.28
10462;BME280;5278;42.656;23.374;2023-04-01T02:18:01;93636.22;;;13.46;55.35
10462;BME280;5278;42.656;23.374;2023-04-01T02:20:30;93637.31;;;13.38;55.93
10462;BME280;5278;42.656;23.374;2023-04-01T02:22:58;93629.19;;;13.46;55.14
10462;BME280;5278;42.656;23.374;2023-04-01T02:25:28;93627.03;;;13.61;54.46
10462;BME280;5278;42.656;23.374;2023-04-01T02:27:57;93627.75;;;13.68;54.34
10462;BME280;5278;42.656;23.374;2023-04-01T02:30:26;93619.34;;;13.66;54.25
10462;BME280;5278;42.656;23.374;2023-04-01T02:32:55;93627.91;;;13.73;54.45
10462;BME280;5278;42.656;23.374;2023-04-01T02:35:24;93629.28;;;13.76;53.73
10462;BME280;5278;42.656;23.374;2023-04-01T02:37:55;93635.88;;;13.78;53.72
10462;BME280;5278;42.656;23.374;2023-04-01T02:40:23;93631.22;;;13.80;54.03
10462;BME280;5278;42.656;23.374;2023-04-01T02:42:50;93634.44;;;13.83;54.28
10462;BME280;5278;42.656;23.374;2023-04-01T02:45:17;93648.41;;;13.88;54.63
10462;BME280;5278;42.656;23.374;2023-04-01T02:47:44;93648.13;;;13.96;55.16
10462;BME280;5278;42.656;23.374;2023-04-01T02:50:11;93653.53;;;13.95;55.98
10462;BME280;5278;42.656;23.374;2023-04-01T02:52:38;93639.66;;;13.83;56.96
10462;BME280;5278;42.656;23.374;2023-04-01T02:55:08;93650.59;;;13.73;57.16
10462;BME280;5278;42.656;23.374;2023-04-01T02:57:36;93648.66;;;13.68;57.49
10462;BME280;5278;42.656;23.374;2023-04-01T03:00:05;93649.88;;;13.66;57.65
10462;BME280;5278;42.656;23.374;2023-04-01T03:02:37;93637.81;;;13.65;57.79
10462;BME280;5278;42.656;23.374;2023-04-01T03:05:05;93670.38;;;13.62;58.52
10462;BME280;5278;42.656;23.374;2023-04-01T03:07:32;93665.66;;;13.53;59.68
10462;BME280;5278;42.656;23.374;2023-04-01T03:10:00;93667.13;;;13.49;60.65
10462;BME280;5278;42.656;23.374;2023-04-01T03:12:31;93668.03;;;13.36;61.49
10462;BME280;5278;42.656;23.374;2023-04-01T03:14:58;93666.66;;;13.33;62.48
10462;BME280;5278;42.656;23.374;2023-04-01T03:17:25;93668.88;;;13.30;62.98
10462;BME280;5278;42.656;23.374;2023-04-01T03:19:52;93667.72;;;13.26;63.68
10462;BME280;5278;42.656;23.374;2023-04-01T03:22:19;93676.41;;;13.20;63.29
10462;BME280;5278;42.656;23.374;2023-04-01T03:24:48;93684.44;;;13.18;63.39
10462;BME280;5278;42.656;23.374;2023-04-01T03:27:15;93665.59;;;13.16;63.81
10462;BME280;5278;42.656;23.374;2023-04-01T03:29:43;93701.75;;;13.13;63.57
10462;BME280;5278;42.656;23.374;2023-04-01T03:32:11;93691.69;;;13.16;63.39
10462;BME280;5278;42.656;23.374;2023-04-01T03:34:38;93677.03;;;13.15;63.20
10462;BME280;5278;42.656;23.374;2023-04-01T03:37:05;93666.41;;;13.17;63.80
10462;BME280;5278;42.656;23.374;2023-04-01T03:39:32;93666.66;;;13.09;64.64
10462;BME280;5278;42.656;23.374;2023-04-01T03:42:00;93676.41;;;13.20;65.96
10462;BME280;5278;42.656;23.374;2023-04-01T03:44:30;93663.94;;;13.22;66.60
10462;BME280;5278;42.656;23.374;2023-04-01T03:47:00;93648.47;;;12.95;66.66
10462;BME280;5278;42.656;23.374;2023-04-01T03:49:28;93653.44;;;12.79;67.32
10462;BME280;5278;42.656;23.374;2023-04-01T03:51:55;93641.22;;;12.79;67.69
10462;BME280;5278;42.656;23.374;2023-04-01T03:54:22;93637.97;;;12.84;67.28
10462;BME280;5278;42.656;23.374;2023-04-01T03:56:48;93623.28;;;12.89;66.99
10462;BME280;5278;42.656;23.374;2023-04-01T03:59:17;93616.19;;;12.97;66.82
10462;BME280;5278;42.656;23.374;2023-04-01T04:01:46;93625.63;;;12.98;65.49
10462;BME280;5278;42.656;23.374;2023-04-01T04:04:14;93587.44;;;12.85;65.13
10462;BME280;5278;42.656;23.374;2023-04-01T04:06:41;93579.75;;;12.65;66.28
10462;BME280;5278;42.656;23.374;2023-04-01T04:09:09;93589.63;;;12.63;66.62
10462;BME280;5278;42.656;23.374;2023-04-01T04:11:36;93581.44;;;12.60;66.33
10462;BME280;5278;42.656;23.374;2023-04-01T04:14:03;93568.31;;;12.66;65.61
10462;BME280;5278;42.656;23.374;2023-04-01T04:16:30;93571.22;;;12.58;64.80
10462;BME280;5278;42.656;23.374;2023-04-01T04:18:57;93548.25;;;12.48;64.31
10462;BME280;5278;42.656;23.374;2023-04-01T04:21:25;93558.31;;;12.45;63.08
10462;BME280;5278;42.656;23.374;2023-04-01T04:23:52;93554.66;;;12.46;63.89
10462;BME280;5278;42.656;23.374;2023-04-01T04:26:19;93492.94;;;12.22;63.52
10462;BME280;5278;42.656;23.374;2023-04-01T04:28:46;93558.56;;;12.62;63.10
10462;BME280;5278;42.656;23.374;2023-04-01T04:31:18;93539.91;;;12.65;62.50
10462;BME280;5278;42.656;23.374;2023-04-01T04:33:46;93552.50;;;12.68;62.28
10462;BME280;5278;42.656;23.374;2023-04-01T04:36:13;93544.16;;;12.59;62.86
10462;BME280;5278;42.656;23.374;2023-04-01T04:38:42;93537.28;;;12.65;62.75
10462;BME280;5278;42.656;23.374;2023-04-01T04:41:09;93509.63;;;12.64;62.68
10462;BME280;5278;42.656;23.374;2023-04-01T04:43:37;93518.72;;;12.79;62.15
10462;BME280;5278;42.656;23.374;2023-04-01T04:46:05;93517.41;;;12.88;61.27
10462;BME280;5278;42.656;23.374;2023-04-01T04:48:32;93507.34;;;12.92;60.93
10462;BME280;5278;42.656;23.374;2023-04-01T04:50:59;93427.97;;;12.51;60.75
10462;BME280;5278;42.656;23.374;2023-04-01T04:53:29;93497.88;;;12.98;60.32
10462;BME280;5278;42.656;23.374;2023-04-01T04:55:58;93495.63;;;13.01;60.41
10462;BME280;5278;42.656;23.374;2023-04-01T04:58:25;93479.31;;;13.06;60.57
10462;BME280;5278;42.656;23.374;2023-04-01T05:00:52;93489.31;;;13.09;60.64
10462;BME280;5278;42.656;23.374;2023-04-01T05:03:19;93483.03;;;13.16;60.99
10462;BME280;5278;42.656;23.374;2023-04-01T05:05:50;93490.66;;;13.18;61.18
10462;BME280;5278;42.656;23.374;2023-04-01T05:08:18;93497.03;;;13.22;61.06
10462;BME280;5278;42.656;23.374;2023-04-01T05:10:45;93484.63;;;13.35;61.34
10462;BME280;5278;42.656;23.374;2023-04-01T05:13:13;93478.03;;;13.33;61.18
10462;BME280;5278;42.656;23.374;2023-04-01T05:15:40;93488.53;;;13.26;61.63
10462;BME280;5278;42.656;23.374;2023-04-01T05:18:07;93475.75;;;13.25;61.75
10462;BME280;5278;42.656;23.374;2023-04-01T05:20:35;93476.00;;;13.35;62.04
10462;BME280;5278;42.656;23.374;2023-04-01T05:23:02;93467.28;;;13.41;61.42
10462;BME280;5278;42.656;23.374;2023-04-01T05:25:29;93470.28;;;13.45;61.49
10462;BME280;5278;42.656;23.374;2023-04-01T05:27:56;93462.88;;;13.42;60.75
10462;BME280;5278;42.656;23.374;2023-04-01T05:30:24;93459.59;;;13.46;60.37
10462;BME280;5278;42.656;23.374;2023-04-01T05:32:51;93453.19;;;13.60;60.31
10462;BME280;5278;42.656;23.374;2023-04-01T05:35:18;93456.44;;;13.74;59.37
10462;BME280;5278;42.656;23.374;2023-04-01T05:37:46;93459.97;;;13.79;59.22
10462;BME280;5278;42.656;23.374;2023-04-01T05:40:13;93455.56;;;13.92;58.78
10462;BME280;5278;42.656;23.374;2023-04-01T05:42:40;93447.03;;;13.85;57.91
10462;BME280;5278;42.656;23.374;2023-04-01T05:45:07;93462.69;;;13.85;58.12
10462;BME280;5278;42.656;23.374;2023-04-01T05:47:36;93471.47;;;14.02;57.95
10462;BME280;5278;42.656;23.374;2023-04-01T05:50:03;93470.81;;;14.18;57.04
10462;BME280;5278;42.656;23.374;2023-04-01T05:52:30;93468.72;;;14.38;56.19
10462;BME280;5278;42.656;23.374;2023-04-01T05:54:57;93445.09;;;14.56;55.80
10462;BME280;5278;42.656;23.374;2023-04-01T05:57:25;93443.16;;;15.27;54.40
10462;BME280;5278;42.656;23.374;2023-04-01T05:59:52;93422.91;;;16.07;50.33
10462;BME280;5278;42.656;23.374;2023-04-01T06:02:19;93421.91;;;16.80;47.83
10462;BME280;5278;42.656;23.374;2023-04-01T06:04:47;93423.00;;;17.71;44.58
10462;BME280;5278;42.656;23.374;2023-04-01T06:07:16;93402.22;;;18.65;42.15
10462;BME280;5278;42.656;23.374;2023-04-01T06:09:43;93421.47;;;19.28;41.69
10462;BME280;5278;42.656;23.374;2023-04-01T06:12:25;93426.97;;;19.16;41.38
10462;BME280;5278;42.656;23.374;2023-04-01T06:15:02;93428.59;;;19.22;41.40
10462;BME280;5278;42.656;23.374;2023-04-01T06:17:43;93413.84;;;19.21;40.52
10462;BME280;5278;42.656;23.374;2023-04-01T06:20:24;93446.72;;;19.19;40.41
10462;BME280;5278;42.656;23.374;2023-04-01T06:23:09;93419.84;;;19.07;40.07
10462;BME280;5278;42.656;23.374;2023-04-01T06:25:58;93412.13;;;18.95;40.63
10462;BME280;5278;42.656;23.374;2023-04-01T06:28:54;93413.38;;;18.82;40.91
10462;BME280;5278;42.656;23.374;2023-04-01T06:31:33;93424.72;;;18.51;41.69
10462;BME280;5278;42.656;23.374;2023-04-01T06:34:21;93408.25;;;18.29;42.02
10462;BME280;5278;42.656;23.374;2023-04-01T06:37:05;93412.34;;;18.15;42.66
10462;BME280;5278;42.656;23.374;2023-04-01T06:39:54;93410.75;;;18.14;43.35
10462;BME280;5278;42.656;23.374;2023-04-01T06:42:35;93408.31;;;18.02;43.61
10462;BME280;5278;42.656;23.374;2023-04-01T06:45:17;93394.63;;;18.00;43.97
10462;BME280;5278;42.656;23.374;2023-04-01T06:48:01;93387.47;;;17.95;44.51
10462;BME280;5278;42.656;23.374;2023-04-01T06:50:37;93406.69;;;17.69;45.50
10462;BME280;5278;42.656;23.374;2023-04-01T06:53:12;93405.69;;;17.53;46.38
10462;BME280;5278;42.656;23.374;2023-04-01T06:55:46;93390.41;;;17.23;47.71
10462;BME280;5278;42.656;23.374;2023-04-01T06:58:20;93384.16;;;17.03;48.95
10462;BME280;5278;42.656;23.374;2023-04-01T07:00:50;93380.22;;;16.62;50.08
10462;BME280;5278;42.656;23.374;2023-04-01T07:03:21;93378.53;;;16.56;51.35
10462;BME280;5278;42.656;23.374;2023-04-01T07:05:49;93376.63;;;16.51;51.49
10462;BME280;5278;42.656;23.374;2023-04-01T07:08:22;93387.59;;;16.65;51.80
10462;BME280;5278;42.656;23.374;2023-04-01T07:10:54;93378.06;;;16.59;51.98
10462;BME280;5278;42.656;23.374;2023-04-01T07:13:26;93377.19;;;16.53;52.73
10462;BME280;5278;42.656;23.374;2023-04-01T07:16:00;93379.03;;;16.36;53.22
10462;BME280;5278;42.656;23.374;2023-04-01T07:18:34;93381.44;;;16.38;53.69
10462;BME280;5278;42.656;23.374;2023-04-01T07:21:04;93361.19;;;16.55;53.19
10462;BME280;5278;42.656;23.374;2023-04-01T07:23:40;93365.16;;;16.74;52.94
10462;BME280;5278;42.656;23.374;2023-04-01T07:26:15;93365.09;;;16.91;52.59
10462;BME280;5278;42.656;23.374;2023-04-01T07:28:44;93384.22;;;17.08;52.40
10462;BME280;5278;42.656;23.374;2023-04-01T07:52:43;93352.59;;;17.46;50.98
10462;BME280;5278;42.656;23.374;2023-04-01T07:55:21;93343.97;;;17.51;50.87
10462;BME280;5278;42.656;23.374;2023-04-01T07:57:56;93356.53;;;17.49;50.69
10462;BME280;5278;42.656;23.374;2023-04-01T08:00:28;93344.94;;;17.45;50.70
10462;BME280;5278;42.656;23.374;2023-04-01T08:03:15;93355.41;;;17.40;50.34
10462;BME280;5278;42.656;23.374;2023-04-01T08:05:52;93355.97;;;17.42;50.76
10462;BME280;5278;42.656;23.374;2023-04-01T08:08:30;93349.22;;;17.51;50.74
10462;BME280;5278;42.656;23.374;2023-04-01T08:11:08;93343.06;;;17.62;50.42
10462;BME280;5278;42.656;23.374;2023-04-01T08:13:44;93328.25;;;17.56;50.69
10462;BME280;5278;42.656;23.374;2023-04-01T08:16:17;93330.28;;;17.49;50.89
10462;BME280;5278;42.656;23.374;2023-04-01T08:18:52;93328.66;;;17.43;51.03
10462;BME280;5278;42.656;23.374;2023-04-01T08:21:24;93314.84;;;17.26;51.04
10462;BME280;5278;42.656;23.374;2023-04-01T08:23:55;93309.78;;;17.46;50.90
10462;BME280;5278;42.656;23.374;2023-04-01T08:26:30;93319.16;;;17.63;50.23
10462;BME280;5278;42.656;23.374;2023-04-01T08:29:00;93308.72;;;17.74;50.35
10462;BME280;5278;42.656;23.374;2023-04-01T08:31:32;93296.47;;;17.84;49.93
10462;BME280;5278;42.656;23.374;2023-04-01T08:34:02;93307.44;;;18.08;48.95
10462;BME280;5278;42.656;23.374;2023-04-01T08:36:34;93278.88;;;18.27;47.69
10462;BME280;5278;42.656;23.374;2023-04-01T08:39:06;93267.09;;;18.39;47.55
10462;BME280;5278;42.656;23.374;2023-04-01T08:45:16;93250.72;;;18.79;46.16
10462;BME280;5278;42.656;23.374;2023-04-01T08:47:56;93248.91;;;18.95;46.25
10462;BME280;5278;42.656;23.374;2023-04-01T08:53:37;93248.19;;;19.25;43.91
10462;BME280;5278;42.656;23.374;2023-04-01T08:56:13;93239.00;;;19.43;43.56
10462;BME280;5278;42.656;23.374;2023-04-01T09:07:43;93258.22;;;19.84;42.02
10462;BME280;5278;42.656;23.374;2023-04-01T09:10:34;93229.22;;;19.84;41.86
10462;BME280;5278;42.656;23.374;2023-04-01T09:13:18;93241.63;;;19.83;41.05
10462;BME280;5278;42.656;23.374;2023-04-01T09:15:58;93246.66;;;19.64;41.44
10462;BME280;5278;42.656;23.374;2023-04-01T09:18:58;93247.66;;;19.43;42.07
10462;BME280;5278;42.656;23.374;2023-04-01T09:27:27;93232.44;;;19.60;41.52
10462;BME280;5278;42.656;23.374;2023-04-01T09:30:27;93230.28;;;19.83;40.92
10462;BME280;5278;42.656;23.374;2023-04-01T09:33:41;93221.31;;;19.89;39.93
10462;BME280;5278;42.656;23.374;2023-04-01T09:36:18;93202.38;;;19.76;39.34
10462;BME280;5278;42.656;23.374;2023-04-01T09:38:56;93186.28;;;19.63;39.23
10462;BME280;5278;42.656;23.374;2023-04-01T09:41:30;93206.06;;;19.65;38.78
10462;BME280;5278;42.656;23.374;2023-04-01T09:44:06;93210.81;;;19.48;39.05
10462;BME280;5278;42.656;23.374;2023-04-01T09:46:49;93207.09;;;19.39;39.13
10462;BME280;5278;42.656;23.374;2023-04-01T09:49:40;93197.63;;;19.48;38.99
10462;BME280;5278;42.656;23.374;2023-04-01T09:52:20;93191.56;;;19.38;38.99
10462;BME280;5278;42.656;23.374;2023-04-01T09:55:13;93183.38;;;19.19;39.36
10462;BME280;5278;42.656;23.374;2023-04-01T09:58:20;93169.41;;;19.23;38.91
10462;BME280;5278;42.656;23.374;2023-04-01T10:01:20;93179.16;;;19.18;38.50
10462;BME280;5278;42.656;23.374;2023-04-01T10:04:34;93167.59;;;19.24;39.06
10462;BME280;5278;42.656;23.374;2023-04-01T10:10:36;93133.34;;;19.09;39.63
10462;BME280;5278;42.656;23.374;2023-04-01T10:13:39;93187.84;;;19.44;39.98
10462;BME280;5278;42.656;23.374;2023-04-01T10:16:29;93169.97;;;19.61;44.25
10462;BME280;5278;42.656;23.374;2023-04-01T10:25:34;93143.72;;;20.74;41.44
10462;BME280;5278;42.656;23.374;2023-04-01T10:31:30;93140.94;;;20.55;38.30
10462;BME280;5278;42.656;23.374;2023-04-01T10:34:36;93156.88;;;20.25;41.69
10462;BME280;5278;42.656;23.374;2023-04-01T10:37:18;93150.56;;;20.31;39.33
10462;BME280;5278;42.656;23.374;2023-04-01T10:40:19;93136.31;;;20.27;40.39
10462;BME280;5278;42.656;23.374;2023-04-01T10:43:35;93119.03;;;19.91;40.95
10462;BME280;5278;42.656;23.374;2023-04-01T10:52:43;93126.16;;;20.54;38.79
10462;BME280;5278;42.656;23.374;2023-04-01T11:01:55;93106.47;;;21.20;38.87
10462;BME280;5278;42.656;23.374;2023-04-01T11:05:00;93087.84;;;21.01;37.47
10462;BME280;5278;42.656;23.374;2023-04-01T11:11:03;93108.94;;;20.08;41.18
10462;BME280;5278;42.656;23.374;2023-04-01T11:17:23;93099.03;;;19.80;38.67
10462;BME280;5278;42.656;23.374;2023-04-01T11:23:30;93093.84;;;18.78;38.82
10462;BME280;5278;42.656;23.374;2023-04-01T11:26:14;93105.69;;;18.66;40.87
10462;BME280;5278;42.656;23.374;2023-04-01T11:29:30;93118.28;;;18.54;41.28
10462;BME280;5278;42.656;23.374;2023-04-01T11:32:14;93078.00;;;18.38;38.30
10462;BME280;5278;42.656;23.374;2023-04-01T11:37:53;93143.31;;;18.61;38.30
10462;BME280;5278;42.656;23.374;2023-04-01T11:40:31;93153.03;;;18.56;39.24
10462;BME280;5278;42.656;23.374;2023-04-01T11:43:06;93170.66;;;18.55;40.46
10462;BME280;5278;42.656;23.374;2023-04-01T11:45:39;93210.28;;;18.38;46.19
10462;BME280;5278;42.656;23.374;2023-04-01T11:48:35;93216.69;;;18.00;47.13
10462;BME280;5278;42.656;23.374;2023-04-01T11:51:21;93258.25;;;17.67;53.48
10462;BME280;5278;42.656;23.374;2023-04-01T11:54:00;93287.09;;;17.35;56.07
10462;BME280;5278;42.656;23.374;2023-04-01T11:59:47;93327.91;;;16.33;71.12
10462;BME280;5278;42.656;23.374;2023-04-01T12:02:25;93361.03;;;15.89;73.48
10462;BME280;5278;42.656;23.374;2023-04-01T12:05:07;93369.66;;;15.57;76.00
10462;BME280;5278;42.656;23.374;2023-04-01T12:07:55;93356.28;;;15.41;79.05
10462;BME280;5278;42.656;23.374;2023-04-01T12:10:32;93332.56;;;15.03;80.91
10462;BME280;5278;42.656;23.374;2023-04-01T12:13:07;93334.59;;;14.73;84.57
10462;BME280;5278;42.656;23.374;2023-04-01T12:15:53;93347.72;;;14.49;86.27
10462;BME280;5278;42.656;23.374;2023-04-01T12:18:23;93353.50;;;14.40;87.15
10462;BME280;5278;42.656;23.374;2023-04-01T12:20:57;93335.88;;;14.35;88.40
10462;BME280;5278;42.656;23.374;2023-04-01T12:23:51;93355.31;;;14.51;86.65
10462;BME280;5278;42.656;23.374;2023-04-01T12:26:33;93351.22;;;14.55;86.72
10462;BME280;5278;42.656;23.374;2023-04-01T12:29:16;93349.41;;;14.55;87.61
10462;BME280;5278;42.656;23.374;2023-04-01T12:31:52;93339.03;;;14.60;86.17
10462;BME280;5278;42.656;23.374;2023-04-01T12:34:54;93338.81;;;14.62;87.36
10462;BME280;5278;42.656;23.374;2023-04-01T12:37:30;93341.31;;;14.69;87.89
10462;BME280;5278;42.656;23.374;2023-04-01T12:40:16;93356.72;;;14.82;86.86
10462;BME280;5278;42.656;23.374;2023-04-01T12:42:55;93342.88;;;14.70;87.36
10462;BME280;5278;42.656;23.374;2023-04-01T12:45:29;93365.66;;;14.57;87.26
10462;BME280;5278;42.656;23.374;2023-04-01T12:48:13;93371.47;;;14.25;89.06
10462;BME280;5278;42.656;23.374;2023-04-01T12:51:07;93370.63;;;14.01;90.52
10462;BME280;5278;42.656;23.374;2023-04-01T12:54:02;93366.75;;;13.80;90.93
10462;BME280;5278;42.656;23.374;2023-04-01T12:56:41;93357.31;;;13.67;92.02
10462;BME280;5278;42.656;23.374;2023-04-01T12:59:40;93359.94;;;13.67;91.66
10462;BME280;5278;42.656;23.374;2023-04-01T13:02:22;93351.97;;;13.62;91.32
10462;BME280;5278;42.656;23.374;2023-04-01T13:05:13;93348.53;;;13.50;91.59
10462;BME280;5278;42.656;23.374;2023-04-01T13:08:01;93336.16;;;13.46;91.70
10462;BME280;5278;42.656;23.374;2023-04-01T13:10:49;93325.41;;;13.42;91.66
10462;BME280;5278;42.656;23.374;2023-04-01T13:13:38;93309.75;;;13.42;91.82
10462;BME280;5278;42.656;23.374;2023-04-01T13:16:14;93213.88;;;12.73;92.13
10462;BME280;5278;42.656;23.374;2023-04-01T13:18:54;93283.31;;;13.39;92.72
10462;BME280;5278;42.656;23.374;2023-04-01T13:21:34;93262.44;;;13.50;89.23
10462;BME280;5278;42.656;23.374;2023-04-01T13:24:11;93262.81;;;13.89;88.75
10462;BME280;5278;42.656;23.374;2023-04-01T13:26:54;93262.72;;;14.35;80.76
10462;BME280;5278;42.656;23.374;2023-04-01T13:29:29;93246.81;;;14.77;79.67
10462;BME280;5278;42.656;23.374;2023-04-01T13:32:10;93251.81;;;15.40;76.13
10462;BME280;5278;42.656;23.374;2023-04-01T13:34:48;93246.47;;;16.02;73.10
10462;BME280;5278;42.656;23.374;2023-04-01T13:37:26;93176.91;;;16.32;69.41
10462;BME280;5278;42.656;23.374;2023-04-01T13:40:12;93225.81;;;17.24;67.03
10462;BME280;5278;42.656;23.374;2023-04-01T13:42:47;93234.22;;;17.53;70.47
10462;BME280;5278;42.656;23.374;2023-04-01T13:45:18;93232.63;;;17.89;70.18
10462;BME280;5278;42.656;23.374;2023-04-01T13:51:09;93202.13;;;18.35;63.59
10462;BME280;5278;42.656;23.374;2023-04-01T13:53:54;93199.78;;;18.43;61.43
10462;BME280;5278;42.656;23.374;2023-04-01T13:56:34;93210.16;;;18.70;61.06
10462;BME280;5278;42.656;23.374;2023-04-01T13:59:40;93206.28;;;19.08;58.67
10462;BME280;5278;42.656;23.374;2023-04-01T14:05:36;93190.25;;;19.40;54.54
10462;BME280;5278;42.656;23.374;2023-04-01T14:08:17;93181.03;;;19.17;55.19
10462;BME280;5278;42.656;23.374;2023-04-01T14:10:54;93175.63;;;18.52;61.74
10462;BME280;5278;42.656;23.374;2023-04-01T14:13:34;93176.69;;;17.93;65.41
10462;BME280;5278;42.656;23.374;2023-04-01T14:16:20;93177.25;;;17.21;69.11
10462;BME280;5278;42.656;23.374;2023-04-01T14:19:03;93173.56;;;16.64;71.86
10462;BME280;5278;42.656;23.374;2023-04-01T14:21:41;93171.84;;;16.26;75.00
10462;BME280;5278;42.656;23.374;2023-04-01T14:24:36;93178.13;;;16.03;75.53
10462;BME280;5278;42.656;23.374;2023-04-01T14:27:27;93173.16;;;15.85;76.45
10462;BME280;5278;42.656;23.374;2023-04-01T14:30:05;93172.50;;;15.73;77.27
10462;BME280;5278;42.656;23.374;2023-04-01T14:32:46;93141.06;;;15.18;79.07
10462;BME280;5278;42.656;23.374;2023-04-01T14:35:33;93149.84;;;15.28;80.55
10462;BME280;5278;42.656;23.374;2023-04-01T14:38:42;93160.53;;;15.10;81.65
10462;BME280;5278;42.656;23.374;2023-04-01T14:41:20;93158.50;;;15.12;81.54
10462;BME280;5278;42.656;23.374;2023-04-01T14:44:11;93155.16;;;15.17;80.46
10462;BME280;5278;42.656;23.374;2023-04-01T14:49:46;93166.28;;;15.24;80.70
10462;BME280;5278;42.656;23.374;2023-04-01T14:52:21;93166.25;;;15.40;79.98
10462;BME280;5278;42.656;23.374;2023-04-01T14:54:53;93156.66;;;15.63;79.98
10462;BME280;5278;42.656;23.374;2023-04-01T14:57:24;93155.63;;;15.85;77.83
10462;BME280;5278;42.656;23.374;2023-04-01T14:59:54;93154.78;;;16.02;76.82
10462;BME280;5278;42.656;23.374;2023-04-01T15:02:44;93163.25;;;16.09;74.79
10462;BME280;5278;42.656;23.374;2023-04-01T15:05:24;93157.41;;;16.02;74.37
10462;BME280;5278;42.656;23.374;2023-04-01T15:08:11;93179.03;;;15.92;73.79
10462;BME280;5278;42.656;23.374;2023-04-01T15:11:17;93177.75;;;15.94;74.53
10462;BME280;5278;42.656;23.374;2023-04-01T15:16:58;93112.81;;;15.36;79.18
10462;BME280;5278;42.656;23.374;2023-04-01T15:19:38;93171.13;;;15.70;79.34
10462;BME280;5278;42.656;23.374;2023-04-01T15:22:36;93177.81;;;15.61;78.44
10462;BME280;5278;42.656;23.374;2023-04-01T15:25:33;93169.97;;;15.44;79.94